Aviation Digital Data Service (ADDS)

Output produced by METARs form (2232 UTC 30 March 2017)
found at http://www.aviationweather.gov/adds/metars/
 
TAF MHLC 302225Z 3100/3124 06005KT 9999 SCT026 TX32/3119Z TN22/3112Z 
     BECMG 3106/3108 15003KT 
     BECMG 3114/3116 35007KT 
     PROB30 3120/3122 8000 VCSH SCT026 SCT080
       
TAF MHLM 302225Z 3100/3124 35008KT 9999 FEW026 TX35/3120Z TN23/3112Z 
     BECMG 3106/3108 00000KT 
     BECMG 3118/3120 02012KT 
     PROB30 3120/3122 8000 VCSH SCT028TCU SCT080
       
TAF MHRO 302225Z 3100/3124 09014KT 9999 FEW026 TX31/3120Z TN26/3112Z
       
TAF MHSC 302104Z 3021/0103 19012G18KT 9999 FEW160 QNH2982INS 
     BECMG 3103/3104 15009KT 9999 BKN065 QNH2991INS 
     BECMG 3114/3115 16012KT 9999 FEW065 QNH2987INS TX35/3121Z TN22/3112Z
       
TAF MHTG 302225Z 3100/3124 21007KT 8000 SCT030 TX32/3121Z TN19/3112Z 
     BECMG 3118/3120 17006G18KT 9999 SCT032TCU
       
TAF MHSC 302104Z 3021/0103 19012G18KT 9999 FEW160 QNH2982INS 
     BECMG 3103/3104 15009KT 9999 BKN065 QNH2991INS 
     BECMG 3114/3115 16012KT 9999 FEW065 QNH2987INS TX35/3121Z TN22/3112Z
       
TAF MHLC 302225Z 3100/3124 06005KT 9999 SCT026 TX32/3119Z TN22/3112Z 
     BECMG 3106/3108 15003KT 
     BECMG 3114/3116 35007KT 
     PROB30 3120/3122 8000 VCSH SCT026 SCT080
       
TAF MHLM 302225Z 3100/3124 35008KT 9999 FEW026 TX35/3120Z TN23/3112Z 
     BECMG 3106/3108 00000KT 
     BECMG 3118/3120 02012KT 
     PROB30 3120/3122 8000 VCSH SCT028TCU SCT080
       
TAF MHRO 302225Z 3100/3124 09014KT 9999 FEW026 TX31/3120Z TN26/3112Z
       
TAF MHSC 302104Z 3021/0103 19012G18KT 9999 FEW160 QNH2982INS 
     BECMG 3103/3104 15009KT 9999 BKN065 QNH2991INS 
     BECMG 3114/3115 16012KT 9999 FEW065 QNH2987INS TX35/3121Z TN22/3112Z
       
TAF MHTG 302225Z 3100/3124 21007KT 8000 SCT030 TX32/3121Z TN19/3112Z 
     BECMG 3118/3120 17006G18KT 9999 SCT032TCU
       
TAF MHLC 302225Z 3100/3124 06005KT 9999 SCT026 TX32/3119Z TN22/3112Z 
     BECMG 3106/3108 15003KT 
     BECMG 3114/3116 35007KT 
     PROB30 3120/3122 8000 VCSH SCT026 SCT080
       
TAF MHLM 302225Z 3100/3124 35008KT 9999 FEW026 TX35/3120Z TN23/3112Z 
     BECMG 3106/3108 00000KT 
     BECMG 3118/3120 02012KT 
     PROB30 3120/3122 8000 VCSH SCT028TCU SCT080
       
TAF MHRO 302225Z 3100/3124 09014KT 9999 FEW026 TX31/3120Z TN26/3112Z
       
TAF MHTG 302225Z 3100/3124 21007KT 8000 SCT030 TX32/3121Z TN19/3112Z 
     BECMG 3118/3120 17006G18KT 9999 SCT032TCU